sensor_id;sensor_type;location;lat;lon;timestamp;pressure;altitude;pressure_sealevel;temperature;humidity
23616;BME280;11985;49.404;7.734;2022-08-01T00:02:01;97402.00;;;20.42;58.89
23616;BME280;11985;49.404;7.734;2022-08-01T00:04:03;97397.50;;;20.38;59.01
23616;BME280;11985;49.404;7.734;2022-08-01T00:06:05;97396.13;;;20.35;59.15
23616;BME280;11985;49.404;7.734;2022-08-01T00:08:08;97396.13;;;20.30;59.32
23616;BME280;11985;49.404;7.734;2022-08-01T00:10:11;97395.56;;;20.23;59.73
23616;BME280;11985;49.404;7.734;2022-08-01T00:12:13;97391.00;;;20.18;59.84
23616;BME280;11985;49.404;7.734;2022-08-01T00:14:14;97391.81;;;20.14;60.04
23616;BME280;11985;49.404;7.734;2022-08-01T00:16:16;97392.88;;;20.13;60.15
23616;BME280;11985;49.404;7.734;2022-08-01T00:18:17;97394.22;;;20.10;60.35
23616;BME280;11985;49.404;7.734;2022-08-01T00:20:19;97392.84;;;20.08;60.40
23616;BME280;11985;49.404;7.734;2022-08-01T00:22:20;97393.38;;;20.10;60.67
23616;BME280;11985;49.404;7.734;2022-08-01T00:24:23;97393.94;;;20.07;60.76
23616;BME280;11985;49.404;7.734;2022-08-01T00:26:25;97389.66;;;20.06;61.00
23616;BME280;11985;49.404;7.734;2022-08-01T00:28:27;97398.75;;;20.04;61.00
23616;BME280;11985;49.404;7.734;2022-08-01T00:30:29;97396.59;;;20.01;61.21
23616;BME280;11985;49.404;7.734;2022-08-01T00:32:30;97388.84;;;20.00;61.47
23616;BME280;11985;49.404;7.734;2022-08-01T00:34:32;97393.63;;;19.98;61.74
23616;BME280;11985;49.404;7.734;2022-08-01T00:36:33;97391.22;;;19.96;61.85
23616;BME280;11985;49.404;7.734;2022-08-01T00:38:35;97391.22;;;19.96;62.11
23616;BME280;11985;49.404;7.734;2022-08-01T00:40:38;97401.13;;;19.96;62.02
23616;BME280;11985;49.404;7.734;2022-08-01T00:42:40;97390.13;;;19.92;62.14
23616;BME280;11985;49.404;7.734;2022-08-01T00:44:41;97387.47;;;19.92;62.49
23616;BME280;11985;49.404;7.734;2022-08-01T00:46:43;97396.00;;;19.89;62.45
23616;BME280;11985;49.404;7.734;2022-08-01T00:48:44;97394.94;;;19.90;62.70
23616;BME280;11985;49.404;7.734;2022-08-01T00:50:46;97390.94;;;19.88;62.83
23616;BME280;11985;49.404;7.734;2022-08-01T00:52:47;97391.47;;;19.90;62.82
23616;BME280;11985;49.404;7.734;2022-08-01T00:54:50;97392.28;;;19.90;62.99
23616;BME280;11985;49.404;7.734;2022-08-01T00:56:54;97386.66;;;19.92;63.14
23616;BME280;11985;49.404;7.734;2022-08-01T00:58:56;97384.78;;;19.92;63.18
23616;BME280;11985;49.404;7.734;2022-08-01T01:00:58;97379.44;;;19.92;63.17
23616;BME280;11985;49.404;7.734;2022-08-01T01:02:59;97384.28;;;19.95;63.33
23616;BME280;11985;49.404;7.734;2022-08-01T01:05:01;97377.31;;;19.94;63.45
23616;BME280;11985;49.404;7.734;2022-08-01T01:07:06;97379.44;;;19.92;63.45
23616;BME280;11985;49.404;7.734;2022-08-01T01:09:17;97377.84;;;19.91;63.63
23616;BME280;11985;49.404;7.734;2022-08-01T01:11:26;97381.56;;;19.90;63.66
23616;BME280;11985;49.404;7.734;2022-08-01T01:13:35;97383.44;;;19.85;63.83
23616;BME280;11985;49.404;7.734;2022-08-01T01:15:41;97383.94;;;19.82;63.72
23616;BME280;11985;49.404;7.734;2022-08-01T01:17:48;97379.41;;;19.82;63.97
23616;BME280;11985;49.404;7.734;2022-08-01T01:19:54;97385.28;;;19.79;64.03
23616;BME280;11985;49.404;7.734;2022-08-01T01:22:08;97371.91;;;19.74;64.10
23616;BME280;11985;49.404;7.734;2022-08-01T01:24:25;97374.03;;;19.72;64.32
23616;BME280;11985;49.404;7.734;2022-08-01T01:26:37;97371.34;;;19.67;64.43
23616;BME280;11985;49.404;7.734;2022-08-01T01:28:54;97372.41;;;19.61;64.67
23616;BME280;11985;49.404;7.734;2022-08-01T01:30:58;97379.28;;;19.57;64.77
23616;BME280;11985;49.404;7.734;2022-08-01T01:33:03;97377.38;;;19.52;65.03
23616;BME280;11985;49.404;7.734;2022-08-01T01:35:09;97382.47;;;19.53;64.97
23616;BME280;11985;49.404;7.734;2022-08-01T01:37:14;97382.19;;;19.50;65.16
23616;BME280;11985;49.404;7.734;2022-08-01T01:39:17;97385.09;;;19.48;65.37
23616;BME280;11985;49.404;7.734;2022-08-01T01:41:19;97388.03;;;19.47;65.49
23616;BME280;11985;49.404;7.734;2022-08-01T01:43:23;97386.16;;;19.47;65.55
23616;BME280;11985;49.404;7.734;2022-08-01T01:45:28;97387.22;;;19.41;65.69
23616;BME280;11985;49.404;7.734;2022-08-01T01:47:31;97383.44;;;19.37;65.76
23616;BME280;11985;49.404;7.734;2022-08-01T01:49:34;97394.66;;;19.34;65.74
23616;BME280;11985;49.404;7.734;2022-08-01T01:51:37;97394.09;;;19.27;65.94
23616;BME280;11985;49.404;7.734;2022-08-01T01:53:39;97387.66;;;19.23;66.11
23616;BME280;11985;49.404;7.734;2022-08-01T01:55:45;97388.69;;;19.17;66.23
23616;BME280;11985;49.404;7.734;2022-08-01T01:57:48;97390.53;;;19.11;66.52
23616;BME280;11985;49.404;7.734;2022-08-01T01:59:52;97391.28;;;19.07;66.66
23616;BME280;11985;49.404;7.734;2022-08-01T02:01:58;97388.06;;;19.05;66.74
23616;BME280;11985;49.404;7.734;2022-08-01T02:04:01;97388.31;;;19.03;67.00
23616;BME280;11985;49.404;7.734;2022-08-01T02:06:04;97388.03;;;18.99;67.08
23616;BME280;11985;49.404;7.734;2022-08-01T02:08:07;97389.91;;;18.99;67.18
23616;BME280;11985;49.404;7.734;2022-08-01T02:10:10;97387.75;;;18.96;67.28
23616;BME280;11985;49.404;7.734;2022-08-01T02:12:14;97389.34;;;18.97;67.39
23616;BME280;11985;49.404;7.734;2022-08-01T02:14:18;97389.06;;;18.93;67.53
23616;BME280;11985;49.404;7.734;2022-08-01T02:16:23;97391.69;;;18.88;67.63
23616;BME280;11985;49.404;7.734;2022-08-01T02:18:27;97383.09;;;18.81;67.78
23616;BME280;11985;49.404;7.734;2022-08-01T02:20:29;97386.22;;;18.73;67.87
23616;BME280;11985;49.404;7.734;2022-08-01T02:22:35;97391.53;;;18.68;68.06
23616;BME280;11985;49.404;7.734;2022-08-01T02:24:40;97390.34;;;18.59;68.23
23616;BME280;11985;49.404;7.734;2022-08-01T02:26:47;97392.41;;;18.52;68.42
23616;BME280;11985;49.404;7.734;2022-08-01T02:28:53;97394.72;;;18.43;68.72
23616;BME280;11985;49.404;7.734;2022-08-01T02:31:01;97395.75;;;18.37;68.84
23616;BME280;11985;49.404;7.734;2022-08-01T02:33:06;97401.84;;;18.32;69.05
23616;BME280;11985;49.404;7.734;2022-08-01T02:35:16;97393.00;;;18.27;69.26
23616;BME280;11985;49.404;7.734;2022-08-01T02:37:20;97400.94;;;18.22;69.45
23616;BME280;11985;49.404;7.734;2022-08-01T02:39:22;97395.78;;;18.15;69.70
23616;BME280;11985;49.404;7.734;2022-08-01T02:41:26;97401.63;;;18.12;69.78
23616;BME280;11985;49.404;7.734;2022-08-01T02:43:30;97396.72;;;18.04;69.99
23616;BME280;11985;49.404;7.734;2022-08-01T02:45:33;97394.84;;;17.99;70.07
23616;BME280;11985;49.404;7.734;2022-08-01T02:47:38;97394.53;;;17.96;70.17
23616;BME280;11985;49.404;7.734;2022-08-01T02:49:42;97398.25;;;17.94;70.43
23616;BME280;11985;49.404;7.734;2022-08-01T02:51:48;97397.13;;;17.90;70.56
23616;BME280;11985;49.404;7.734;2022-08-01T02:53:51;97397.63;;;17.87;70.80
23616;BME280;11985;49.404;7.734;2022-08-01T02:55:55;97390.63;;;17.81;70.90
23616;BME280;11985;49.404;7.734;2022-08-01T02:57:58;97394.28;;;17.75;71.17
23616;BME280;11985;49.404;7.734;2022-08-01T03:00:00;97398.44;;;17.71;71.07
23616;BME280;11985;49.404;7.734;2022-08-01T03:02:03;97392.03;;;17.67;71.37
23616;BME280;11985;49.404;7.734;2022-08-01T03:04:06;97404.22;;;17.63;71.50
23616;BME280;11985;49.404;7.734;2022-08-01T03:06:09;97404.97;;;17.58;71.78
23616;BME280;11985;49.404;7.734;2022-08-01T03:08:13;97405.47;;;17.55;71.91
23616;BME280;11985;49.404;7.734;2022-08-01T03:10:17;97403.03;;;17.54;72.12
23616;BME280;11985;49.404;7.734;2022-08-01T03:12:23;97412.06;;;17.53;72.30
23616;BME280;11985;49.404;7.734;2022-08-01T03:14:26;97411.53;;;17.51;72.27
23616;BME280;11985;49.404;7.734;2022-08-01T03:16:30;97405.63;;;17.49;72.44
23616;BME280;11985;49.404;7.734;2022-08-01T03:18:33;97405.06;;;17.47;72.56
23616;BME280;11985;49.404;7.734;2022-08-01T03:20:36;97410.91;;;17.44;72.73
23616;BME280;11985;49.404;7.734;2022-08-01T03:22:39;97412.44;;;17.39;72.96
23616;BME280;11985;49.404;7.734;2022-08-01T03:24:44;97418.25;;;17.36;72.86
23616;BME280;11985;49.404;7.734;2022-08-01T03:26:49;97412.63;;;17.33;73.06
23616;BME280;11985;49.404;7.734;2022-08-01T03:28:55;97404.06;;;17.31;73.16
23616;BME280;11985;49.404;7.734;2022-08-01T03:30:58;97406.97;;;17.29;73.38
23616;BME280;11985;49.404;7.734;2022-08-01T03:33:01;97416.03;;;17.28;73.48
23616;BME280;11985;49.404;7.734;2022-08-01T03:35:03;97406.66;;;17.26;73.54
23616;BME280;11985;49.404;7.734;2022-08-01T03:37:08;97399.16;;;17.23;73.73
23616;BME280;11985;49.404;7.734;2022-08-01T03:39:13;97415.88;;;17.18;73.83
23616;BME280;11985;49.404;7.734;2022-08-01T03:41:20;97407.81;;;17.13;74.14
23616;BME280;11985;49.404;7.734;2022-08-01T03:43:30;97408.28;;;17.10;74.19
23616;BME280;11985;49.404;7.734;2022-08-01T03:45:35;97414.66;;;17.09;74.22
23616;BME280;11985;49.404;7.734;2022-08-01T03:47:42;97410.88;;;17.05;74.33
23616;BME280;11985;49.404;7.734;2022-08-01T03:49:45;97416.69;;;17.02;74.52
23616;BME280;11985;49.404;7.734;2022-08-01T03:51:49;97413.78;;;17.03;74.63
23616;BME280;11985;49.404;7.734;2022-08-01T03:53:53;97415.97;;;17.06;74.70
23616;BME280;11985;49.404;7.734;2022-08-01T03:55:58;97411.53;;;17.12;74.64
23616;BME280;11985;49.404;7.734;2022-08-01T03:58:02;97415.88;;;17.18;74.82
23616;BME280;11985;49.404;7.734;2022-08-01T04:00:05;97414.63;;;17.26;74.74
23616;BME280;11985;49.404;7.734;2022-08-01T04:02:09;97411.75;;;17.27;74.73
23616;BME280;11985;49.404;7.734;2022-08-01T04:04:11;97419.22;;;17.30;74.93
23616;BME280;11985;49.404;7.734;2022-08-01T04:06:13;97416.03;;;17.28;74.68
23616;BME280;11985;49.404;7.734;2022-08-01T04:08:14;97417.63;;;17.29;74.70
23616;BME280;11985;49.404;7.734;2022-08-01T04:10:16;97422.41;;;17.27;74.85
23616;BME280;11985;49.404;7.734;2022-08-01T04:12:17;97425.53;;;17.24;74.88
23616;BME280;11985;49.404;7.734;2022-08-01T04:14:20;97425.53;;;17.24;74.83
23616;BME280;11985;49.404;7.734;2022-08-01T04:16:22;97425.78;;;17.23;74.74
23616;BME280;11985;49.404;7.734;2022-08-01T04:18:23;97422.88;;;17.24;74.89
23616;BME280;11985;49.404;7.734;2022-08-01T04:20:25;97423.13;;;17.23;74.80
23616;BME280;11985;49.404;7.734;2022-08-01T04:22:26;97425.78;;;17.23;74.91
23616;BME280;11985;49.404;7.734;2022-08-01T04:24:28;97424.97;;;17.22;74.80
23616;BME280;11985;49.404;7.734;2022-08-01T04:26:32;97422.06;;;17.24;74.89
23616;BME280;11985;49.404;7.734;2022-08-01T04:28:36;97422.88;;;17.24;74.95
23616;BME280;11985;49.404;7.734;2022-08-01T04:30:41;97429.72;;;17.20;74.97
23616;BME280;11985;49.404;7.734;2022-08-01T04:32:44;97441.44;;;17.19;74.81
23616;BME280;11985;49.404;7.734;2022-08-01T04:34:47;97437.63;;;17.15;74.89
23616;BME280;11985;49.404;7.734;2022-08-01T04:36:52;97441.84;;;17.11;74.98
23616;BME280;11985;49.404;7.734;2022-08-01T04:38:58;97437.50;;;17.05;75.18
23616;BME280;11985;49.404;7.734;2022-08-01T04:41:02;97438.44;;;16.99;75.23
23616;BME280;11985;49.404;7.734;2022-08-01T04:43:06;97435.22;;;16.97;75.57
23616;BME280;11985;49.404;7.734;2022-08-01T04:45:08;97441.28;;;16.92;75.72
23616;BME280;11985;49.404;7.734;2022-08-01T04:47:12;97444.91;;;16.86;75.73
23616;BME280;11985;49.404;7.734;2022-08-01T04:49:14;97445.69;;;16.86;75.86
23616;BME280;11985;49.404;7.734;2022-08-01T04:51:17;97445.41;;;16.83;76.10
23616;BME280;11985;49.404;7.734;2022-08-01T04:53:22;97451.53;;;16.83;76.27
23616;BME280;11985;49.404;7.734;2022-08-01T04:55:23;97446.50;;;16.87;76.25
23616;BME280;11985;49.404;7.734;2022-08-01T04:57:25;97446.38;;;16.94;76.32
23616;BME280;11985;49.404;7.734;2022-08-01T04:59:27;97445.41;;;17.00;76.44
23616;BME280;11985;49.404;7.734;2022-08-01T05:01:40;97443.38;;;17.07;76.48
23616;BME280;11985;49.404;7.734;2022-08-01T05:03:43;97448.78;;;17.12;76.57
23616;BME280;11985;49.404;7.734;2022-08-01T05:05:45;97451.53;;;17.17;76.69
23616;BME280;11985;49.404;7.734;2022-08-01T05:07:46;97448.94;;;17.22;76.55
23616;BME280;11985;49.404;7.734;2022-08-01T05:09:48;97457.00;;;17.27;76.60
23616;BME280;11985;49.404;7.734;2022-08-01T05:11:49;97453.59;;;17.32;76.53
23616;BME280;11985;49.404;7.734;2022-08-01T05:13:51;97457.38;;;17.36;76.60
23616;BME280;11985;49.404;7.734;2022-08-01T05:15:52;97454.78;;;17.41;76.57
23616;BME280;11985;49.404;7.734;2022-08-01T05:17:55;97444.22;;;17.46;76.44
23616;BME280;11985;49.404;7.734;2022-08-01T05:19:58;97448.31;;;17.54;76.41
23616;BME280;11985;49.404;7.734;2022-08-01T05:22:00;97451.63;;;17.61;76.42
23616;BME280;11985;49.404;7.734;2022-08-01T05:24:02;97455.69;;;17.68;76.23
23616;BME280;11985;49.404;7.734;2022-08-01T05:26:03;97453.69;;;17.76;76.30
23616;BME280;11985;49.404;7.734;2022-08-01T05:28:05;97458.34;;;17.85;76.24
23616;BME280;11985;49.404;7.734;2022-08-01T05:30:08;97458.53;;;18.01;76.15
23616;BME280;11985;49.404;7.734;2022-08-01T05:32:10;97463.22;;;18.15;75.93
23616;BME280;11985;49.404;7.734;2022-08-01T05:34:12;97464.78;;;18.33;75.75
23616;BME280;11985;49.404;7.734;2022-08-01T05:36:15;97470.25;;;18.48;75.51
23616;BME280;11985;49.404;7.734;2022-08-01T05:38:16;97470.41;;;18.64;75.25
23616;BME280;11985;49.404;7.734;2022-08-01T05:40:18;97471.19;;;18.86;74.93
23616;BME280;11985;49.404;7.734;2022-08-01T05:42:19;97462.84;;;19.10;74.54
23616;BME280;11985;49.404;7.734;2022-08-01T05:44:21;97460.06;;;19.32;74.22
23616;BME280;11985;49.404;7.734;2022-08-01T05:46:22;97462.03;;;19.46;73.65
23616;BME280;11985;49.404;7.734;2022-08-01T05:48:24;97468.34;;;19.67;73.47
23616;BME280;11985;49.404;7.734;2022-08-01T05:50:27;97466.28;;;19.85;72.96
23616;BME280;11985;49.404;7.734;2022-08-01T05:52:29;97463.41;;;20.01;72.61
23616;BME280;11985;49.404;7.734;2022-08-01T05:54:31;97458.16;;;20.22;72.21
23616;BME280;11985;49.404;7.734;2022-08-01T05:56:33;97461.41;;;20.34;71.52
23616;BME280;11985;49.404;7.734;2022-08-01T05:58:34;97460.63;;;20.39;70.88
23616;BME280;11985;49.404;7.734;2022-08-01T06:00:36;97460.91;;;20.47;70.70
23616;BME280;11985;49.404;7.734;2022-08-01T06:02:40;97461.47;;;20.65;70.38
23616;BME280;11985;49.404;7.734;2022-08-01T06:04:42;97459.09;;;20.73;69.70
23616;BME280;11985;49.404;7.734;2022-08-01T06:06:43;97465.25;;;20.84;69.26
23616;BME280;11985;49.404;7.734;2022-08-01T06:08:46;97461.00;;;20.93;68.77
23616;BME280;11985;49.404;7.734;2022-08-01T06:10:48;97465.81;;;21.01;68.39
23616;BME280;11985;49.404;7.734;2022-08-01T06:12:50;97460.72;;;21.05;68.04
23616;BME280;11985;49.404;7.734;2022-08-01T06:14:51;97464.22;;;21.11;67.79
23616;BME280;11985;49.404;7.734;2022-08-01T06:16:53;97477.59;;;21.16;67.27
23616;BME280;11985;49.404;7.734;2022-08-01T06:18:55;97477.59;;;21.16;67.11
23616;BME280;11985;49.404;7.734;2022-08-01T06:20:56;97471.69;;;21.14;66.88
23616;BME280;11985;49.404;7.734;2022-08-01T06:22:58;97482.41;;;21.08;66.59
23616;BME280;11985;49.404;7.734;2022-08-01T06:25:01;97471.97;;;21.17;66.36
23616;BME280;11985;49.404;7.734;2022-08-01T06:27:02;97477.84;;;21.24;65.66
23616;BME280;11985;49.404;7.734;2022-08-01T06:29:04;97479.75;;;21.39;65.53
23616;BME280;11985;49.404;7.734;2022-08-01T06:31:06;97475.66;;;21.72;65.28
23616;BME280;11985;49.404;7.734;2022-08-01T06:33:07;97481.22;;;22.01;64.82
23616;BME280;11985;49.404;7.734;2022-08-01T06:35:09;97479.81;;;22.09;64.31
23616;BME280;11985;49.404;7.734;2022-08-01T06:37:10;97487.03;;;22.29;63.93
23616;BME280;11985;49.404;7.734;2022-08-01T06:39:14;97480.75;;;22.49;63.52
23616;BME280;11985;49.404;7.734;2022-08-01T06:41:16;97483.19;;;22.45;63.15
23616;BME280;11985;49.404;7.734;2022-08-01T06:43:18;97489.63;;;22.49;62.43
23616;BME280;11985;49.404;7.734;2022-08-01T06:45:20;97477.13;;;22.69;62.53
23616;BME280;11985;49.404;7.734;2022-08-01T06:47:22;97481.41;;;22.75;61.89
23616;BME280;11985;49.404;7.734;2022-08-01T06:49:24;97477.59;;;22.81;61.92
23616;BME280;11985;49.404;7.734;2022-08-01T06:51:25;97480.41;;;23.05;61.33
23616;BME280;11985;49.404;7.734;2022-08-01T06:53:27;97483.88;;;23.10;60.85
23616;BME280;11985;49.404;7.734;2022-08-01T06:55:28;97473.91;;;22.72;60.48
23616;BME280;11985;49.404;7.734;2022-08-01T06:57:31;97483.69;;;22.52;60.43
23616;BME280;11985;49.404;7.734;2022-08-01T06:59:33;97488.06;;;22.38;60.53
23616;BME280;11985;49.404;7.734;2022-08-01T07:01:34;97476.84;;;22.26;60.43
23616;BME280;11985;49.404;7.734;2022-08-01T07:03:36;97483.84;;;22.22;60.22
23616;BME280;11985;49.404;7.734;2022-08-01T07:05:38;97476.84;;;22.26;60.30
23616;BME280;11985;49.404;7.734;2022-08-01T07:07:39;97480.47;;;22.55;60.44
23616;BME280;11985;49.404;7.734;2022-08-01T07:09:41;97481.34;;;22.85;60.04
23616;BME280;11985;49.404;7.734;2022-08-01T07:11:42;97479.16;;;22.87;59.97
23616;BME280;11985;49.404;7.734;2022-08-01T07:13:45;97469.44;;;22.57;59.85
23616;BME280;11985;49.404;7.734;2022-08-01T07:15:47;97476.44;;;22.53;59.71
23616;BME280;11985;49.404;7.734;2022-08-01T07:17:48;97461.84;;;22.69;59.94
23616;BME280;11985;49.404;7.734;2022-08-01T07:19:50;97465.66;;;23.02;59.45
23616;BME280;11985;49.404;7.734;2022-08-01T07:21:53;97473.00;;;23.21;59.39
23616;BME280;11985;49.404;7.734;2022-08-01T07:23:55;97465.78;;;23.50;58.91
23616;BME280;11985;49.404;7.734;2022-08-01T07:25:56;97467.59;;;23.84;58.38
23616;BME280;11985;49.404;7.734;2022-08-01T07:27:59;97464.16;;;24.02;58.12
23616;BME280;11985;49.404;7.734;2022-08-01T07:30:02;97463.38;;;24.20;57.44
23616;BME280;11985;49.404;7.734;2022-08-01T07:32:04;97462.75;;;24.29;57.09
23616;BME280;11985;49.404;7.734;2022-08-01T07:34:06;97461.94;;;24.28;56.73
23616;BME280;11985;49.404;7.734;2022-08-01T07:36:08;97465.28;;;24.44;56.29
23616;BME280;11985;49.404;7.734;2022-08-01T07:38:10;97453.03;;;24.52;55.85
23616;BME280;11985;49.404;7.734;2022-08-01T07:40:12;97454.44;;;24.49;55.60
23616;BME280;11985;49.404;7.734;2022-08-01T07:42:13;97459.81;;;24.49;55.40
23616;BME280;11985;49.404;7.734;2022-08-01T07:44:14;97459.81;;;24.49;55.10
23616;BME280;11985;49.404;7.734;2022-08-01T07:46:17;97452.81;;;24.48;55.03
23616;BME280;11985;49.404;7.734;2022-08-01T07:48:19;97451.22;;;24.47;55.02
23616;BME280;11985;49.404;7.734;2022-08-01T07:50:24;97455.84;;;24.22;54.80
23616;BME280;11985;49.404;7.734;2022-08-01T07:52:25;97458.66;;;23.59;55.08
23616;BME280;11985;49.404;7.734;2022-08-01T07:54:27;97455.41;;;23.67;55.15
23616;BME280;11985;49.404;7.734;2022-08-01T07:56:28;97461.13;;;23.85;55.26
23616;BME280;11985;49.404;7.734;2022-08-01T07:58:30;97457.78;;;23.93;54.94
23616;BME280;11985;49.404;7.734;2022-08-01T08:00:31;97463.91;;;23.98;54.76
23616;BME280;11985;49.404;7.734;2022-08-01T08:02:34;97463.22;;;24.12;54.87
23616;BME280;11985;49.404;7.734;2022-08-01T08:04:36;97462.81;;;24.23;54.72
23616;BME280;11985;49.404;7.734;2022-08-01T08:06:37;97463.16;;;24.41;54.83
23616;BME280;11985;49.404;7.734;2022-08-01T08:08:39;97460.84;;;24.10;54.51
23616;BME280;11985;49.404;7.734;2022-08-01T08:10:40;97465.25;;;24.01;54.78
23616;BME280;11985;49.404;7.734;2022-08-01T08:12:42;97456.53;;;23.85;54.66
23616;BME280;11985;49.404;7.734;2022-08-01T08:14:43;97469.03;;;24.00;54.78
23616;BME280;11985;49.404;7.734;2022-08-01T08:16:45;97460.28;;;24.32;54.47
23616;BME280;11985;49.404;7.734;2022-08-01T08:18:48;97472.06;;;24.60;54.20
23616;BME280;11985;49.404;7.734;2022-08-01T08:20:49;97460.69;;;24.63;53.78
23616;BME280;11985;49.404;7.734;2022-08-01T08:22:51;97465.34;;;24.58;53.70
23616;BME280;11985;49.404;7.734;2022-08-01T08:24:52;97460.25;;;24.56;53.32
23616;BME280;11985;49.404;7.734;2022-08-01T08:26:54;97462.44;;;24.30;53.34
23616;BME280;11985;49.404;7.734;2022-08-01T08:28:56;97471.00;;;24.13;53.19
23616;BME280;11985;49.404;7.734;2022-08-01T08:30:58;97455.22;;;24.07;52.74
23616;BME280;11985;49.404;7.734;2022-08-01T08:32:59;97466.53;;;24.04;53.00
23616;BME280;11985;49.404;7.734;2022-08-01T08:35:03;97461.81;;;23.95;52.88
23616;BME280;11985;49.404;7.734;2022-08-01T08:37:04;97465.59;;;23.94;53.00
23616;BME280;11985;49.404;7.734;2022-08-01T08:39:06;97456.31;;;24.06;53.09
23616;BME280;11985;49.404;7.734;2022-08-01T08:41:08;97458.34;;;24.14;53.11
23616;BME280;11985;49.404;7.734;2022-08-01T08:43:10;97466.47;;;24.33;53.05
23616;BME280;11985;49.404;7.734;2022-08-01T08:45:12;97456.59;;;24.47;53.05
23616;BME280;11985;49.404;7.734;2022-08-01T08:47:14;97461.22;;;24.65;52.76
23616;BME280;11985;49.404;7.734;2022-08-01T08:49:18;97451.81;;;24.44;52.87
23616;BME280;11985;49.404;7.734;2022-08-01T08:51:23;97451.34;;;24.37;52.83
23616;BME280;11985;49.404;7.734;2022-08-01T08:53:27;97446.34;;;24.06;52.88
23616;BME280;11985;49.404;7.734;2022-08-01T08:55:31;97457.34;;;23.86;53.05
23616;BME280;11985;49.404;7.734;2022-08-01T08:57:32;97457.13;;;23.82;53.15
23616;BME280;11985;49.404;7.734;2022-08-01T08:59:34;97454.75;;;23.76;53.27
23616;BME280;11985;49.404;7.734;2022-08-01T09:01:36;97453.69;;;23.77;53.59
23616;BME280;11985;49.404;7.734;2022-08-01T09:03:38;97450.53;;;23.69;53.40
23616;BME280;11985;49.404;7.734;2022-08-01T09:05:39;97453.59;;;23.29;53.65
23616;BME280;11985;49.404;7.734;2022-08-01T09:07:42;97454.56;;;23.09;53.79
23616;BME280;11985;49.404;7.734;2022-08-01T09:09:44;97460.66;;;22.85;54.05
23616;BME280;11985;49.404;7.734;2022-08-01T09:11:48;97457.66;;;22.87;54.25
23616;BME280;11985;49.404;7.734;2022-08-01T09:14:03;97455.47;;;22.99;54.44
23616;BME280;11985;49.404;7.734;2022-08-01T09:16:05;97468.78;;;23.14;54.37
23616;BME280;11985;49.404;7.734;2022-08-01T09:18:07;97457.50;;;23.12;54.43
23616;BME280;11985;49.404;7.734;2022-08-01T09:20:08;97452.84;;;22.94;54.69
23616;BME280;11985;49.404;7.734;2022-08-01T09:22:24;97465.22;;;22.85;54.76
23616;BME280;11985;49.404;7.734;2022-08-01T09:24:28;97467.41;;;22.83;55.16
23616;BME280;11985;49.404;7.734;2022-08-01T09:26:32;97480.22;;;22.96;54.72
23616;BME280;11985;49.404;7.734;2022-08-01T09:28:34;97475.41;;;23.27;54.53
23616;BME280;11985;49.404;7.734;2022-08-01T09:30:37;97473.31;;;23.48;54.34
23616;BME280;11985;49.404;7.734;2022-08-01T09:32:53;97479.09;;;23.65;53.67
23616;BME280;11985;49.404;7.734;2022-08-01T09:34:55;97481.25;;;23.87;53.43
23616;BME280;11985;49.404;7.734;2022-08-01T09:36:58;97467.72;;;23.74;53.14
23616;BME280;11985;49.404;7.734;2022-08-01T09:39:12;97471.59;;;23.57;53.04
23616;BME280;11985;49.404;7.734;2022-08-01T09:41:15;97478.28;;;23.65;53.16
23616;BME280;11985;49.404;7.734;2022-08-01T09:43:18;97467.44;;;23.99;53.04
23616;BME280;11985;49.404;7.734;2022-08-01T09:45:32;97465.56;;;24.18;52.69
23616;BME280;11985;49.404;7.734;2022-08-01T09:47:37;97481.28;;;24.11;52.62
23616;BME280;11985;49.404;7.734;2022-08-01T09:49:40;97472.41;;;24.11;52.43
23616;BME280;11985;49.404;7.734;2022-08-01T09:51:42;97476.50;;;24.03;52.66
23616;BME280;11985;49.404;7.734;2022-08-01T09:53:45;97475.28;;;23.72;52.75
23616;BME280;11985;49.404;7.734;2022-08-01T09:55:46;97479.72;;;23.52;52.72
23616;BME280;11985;49.404;7.734;2022-08-01T09:57:55;97478.78;;;23.38;52.94
23616;BME280;11985;49.404;7.734;2022-08-01T09:59:59;97469.06;;;23.42;53.23
23616;BME280;11985;49.404;7.734;2022-08-01T10:02:01;97475.44;;;23.51;53.21
23616;BME280;11985;49.404;7.734;2022-08-01T10:04:03;97484.69;;;23.40;52.91
23616;BME280;11985;49.404;7.734;2022-08-01T10:06:18;97475.28;;;23.37;53.07
23616;BME280;11985;49.404;7.734;2022-08-01T10:08:20;97482.53;;;23.37;53.10
23616;BME280;11985;49.404;7.734;2022-08-01T10:10:23;97491.78;;;23.26;53.21
23616;BME280;11985;49.404;7.734;2022-08-01T10:12:25;97486.91;;;23.33;53.45
23616;BME280;11985;49.404;7.734;2022-08-01T10:14:29;97494.63;;;23.39;53.41
23616;BME280;11985;49.404;7.734;2022-08-01T10:16:32;97491.22;;;23.29;53.43
23616;BME280;11985;49.404;7.734;2022-08-01T10:18:35;97491.41;;;23.37;53.55
23616;BME280;11985;49.404;7.734;2022-08-01T10:20:38;97488.31;;;23.54;53.63
23616;BME280;11985;49.404;7.734;2022-08-01T10:22:42;97485.44;;;23.75;53.56
23616;BME280;11985;49.404;7.734;2022-08-01T10:24:46;97487.81;;;24.05;53.10
23616;BME280;11985;49.404;7.734;2022-08-01T10:26:51;97480.13;;;24.17;52.73
23616;BME280;11985;49.404;7.734;2022-08-01T10:28:55;97477.25;;;24.33;52.34
23616;BME280;11985;49.404;7.734;2022-08-01T10:30:57;97486.13;;;24.33;52.10
23616;BME280;11985;49.404;7.734;2022-08-01T10:33:00;97476.22;;;24.29;51.73
23616;BME280;11985;49.404;7.734;2022-08-01T10:35:04;97477.09;;;24.43;51.62
23616;BME280;11985;49.404;7.734;2022-08-01T10:37:06;97476.78;;;24.26;51.23
23616;BME280;11985;49.404;7.734;2022-08-01T10:39:10;97480.22;;;24.07;51.27
23616;BME280;11985;49.404;7.734;2022-08-01T10:41:12;97474.41;;;24.00;51.54
23616;BME280;11985;49.404;7.734;2022-08-01T10:43:16;97483.38;;;23.90;51.42
23616;BME280;11985;49.404;7.734;2022-08-01T10:45:18;97481.44;;;23.96;51.47
23616;BME280;11985;49.404;7.734;2022-08-01T10:47:25;97478.75;;;23.96;51.33
23616;BME280;11985;49.404;7.734;2022-08-01T10:49:30;97478.31;;;23.89;51.08
23616;BME280;11985;49.404;7.734;2022-08-01T10:51:37;97482.75;;;23.75;51.30
23616;BME280;11985;49.404;7.734;2022-08-01T10:53:46;97480.69;;;23.66;51.23